Time;durP1;ratioP1;P1;durP2;ratioP2;P2;SDS_P1;SDS_P2;PMS_P1;PMS_P2;Temp;Humidity;BMP_temperature;BMP_pressure;BME280_temperature;BME280_humidity;BME280_pressure;Samples;Min_cycle;Max_cycle;Signal;HPM_P1;HPM_P2
2022/06/07 00:02:07;;;;;;;14.13;7.45;;;12.20;99.90;;;;;;5092805;28;20131;-63
2022/06/07 00:04:34;;;;;;;20.25;7.78;;;12.00;99.90;;;;;;5092876;28;20097;-63
2022/06/07 00:07:00;;;;;;;15.77;7.28;;;12.30;99.90;;;;;;5092769;28;20050;-67
2022/06/07 00:09:26;;;;;;;;;;;12.00;99.90;;;;;;5093197;28;20431;-63
2022/06/07 00:11:52;;;;;;;15.55;7.13;;;12.00;99.90;;;;;;5092754;28;19924;-63
2022/06/07 00:14:18;;;;;;;16.88;7.22;;;12.10;99.90;;;;;;5092877;28;20125;-63
2022/06/07 00:16:44;;;;;;;16.02;7.28;;;12.00;99.90;;;;;;5092814;28;20127;-64
2022/06/07 00:19:10;;;;;;;17.45;7.72;;;12.10;99.90;;;;;;5074921;28;20095;-66
2022/06/07 00:21:35;;;;;;;19.77;8.63;;;11.90;99.90;;;;;;5092850;28;20084;-63
2022/06/07 00:24:02;;;;;;;17.65;8.32;;;12.00;99.90;;;;;;5092725;28;20048;-65
2022/06/07 00:26:28;;;;;;;;;;;12.20;99.90;;;;;;5093085;28;20074;-64
2022/06/07 00:28:54;;;;;;;18.55;8.50;;;12.10;99.90;;;;;;5092209;28;20343;-65
2022/06/07 00:31:20;;;;;;;;;;;12.30;99.90;;;;;;5092817;28;20552;-62
2022/06/07 00:33:46;;;;;;;18.30;8.13;;;12.10;99.90;;;;;;5092657;28;20015;-63
2022/06/07 00:36:12;;;;;;;21.42;8.43;;;12.10;99.90;;;;;;5092536;28;20059;-64
2022/06/07 00:38:38;;;;;;;18.38;8.52;;;12.30;99.90;;;;;;5092605;28;20390;-63
2022/06/07 00:41:04;;;;;;;19.70;8.43;;;12.10;99.90;;;;;;5092619;28;20040;-63
2022/06/07 00:43:30;;;;;;;17.77;8.20;;;12.30;99.90;;;;;;5092509;28;20108;-63
2022/06/07 00:45:59;;;;;;;;;;;11.90;99.90;;;;;;5092981;28;20048;-63
2022/06/07 00:48:25;;;;;;;22.83;8.18;;;12.20;99.90;;;;;;5092452;28;19920;-63
2022/06/07 00:50:58;;;;;;;19.27;9.18;;;12.30;99.90;;;;;;5093984;28;20054;-63
2022/06/07 00:53:27;;;;;;;19.08;8.23;;;11.90;99.90;;;;;;5096574;28;20051;-63
2022/06/07 00:55:53;;;;;;;15.10;7.78;;;12.00;99.90;;;;;;5096508;28;20048;-65
2022/06/07 00:58:20;;;;;;;13.45;8.02;;;12.20;99.90;;;;;;5096474;28;20434;-64
2022/06/07 01:00:46;;;;;;;15.50;7.72;;;12.50;99.90;;;;;;5096432;28;20044;-65
2022/06/07 01:03:12;;;;;;;20.50;8.15;;;12.30;99.90;;;;;;5096360;28;20052;-66
2022/06/07 01:05:38;;;;;;;;;;;12.10;99.90;;;;;;5078669;28;20098;-64
2022/06/07 01:10:49;;;;;;;14.93;7.82;;;12.20;99.90;;;;;;5096215;28;20048;-64
2022/06/07 01:13:19;;;;;;;17.48;7.32;;;12.10;99.90;;;;;;5096154;28;20036;-63
2022/06/07 01:15:45;;;;;;;15.32;6.90;;;12.40;99.90;;;;;;5096087;28;20099;-64
2022/06/07 01:18:13;;;;;;;14.50;7.72;;;11.80;99.90;;;;;;5096053;28;20086;-64
2022/06/07 01:20:39;;;;;;;16.70;7.55;;;13.30;99.90;;;;;;5095993;28;20036;-63
2022/06/07 01:23:05;;;;;;;15.10;7.40;;;12.00;99.90;;;;;;5095949;28;20051;-64
2022/06/07 01:25:31;;;;;;;16.35;7.28;;;12.30;99.90;;;;;;5095962;28;20058;-63
2022/06/07 01:27:57;;;;;;;15.20;7.55;;;12.00;99.90;;;;;;5095934;28;20040;-63
2022/06/07 01:30:23;;;;;;;14.52;7.35;;;12.60;99.90;;;;;;5095816;28;20064;-65
2022/06/07 01:32:48;;;;;;;21.10;7.70;;;12.10;99.90;;;;;;5095555;28;20051;-63
2022/06/07 01:35:14;;;;;;;15.52;7.45;;;12.20;99.90;;;;;;5095765;28;20086;-63
2022/06/07 01:37:40;;;;;;;13.32;7.65;;;12.20;99.90;;;;;;5095734;28;20044;-64
2022/06/07 01:42:51;;;;;;;14.40;7.35;;;12.50;99.90;;;;;;5095648;28;20155;-64
2022/06/07 01:45:18;;;;;;;15.10;7.25;;;12.50;99.90;;;;;;5095689;28;20135;-65
2022/06/07 01:47:44;;;;;;;17.55;7.60;;;12.50;99.90;;;;;;5077427;28;20051;-64
2022/06/07 01:50:10;;;;;;;12.68;8.45;;;12.30;99.90;;;;;;5095396;28;20044;-64
2022/06/07 01:52:36;;;;;;;22.17;8.50;;;13.00;99.90;;;;;;5060616;28;20040;-64
2022/06/07 01:55:04;;;;;;;17.75;8.68;;;12.20;99.90;;;;;;5095463;28;20040;-64
2022/06/07 01:57:30;;;;;;;19.58;9.00;;;12.00;99.90;;;;;;5095231;28;20076;-63
2022/06/07 01:59:57;;;;;;;20.50;9.02;;;12.00;99.90;;;;;;5095338;28;20087;-63
2022/06/07 02:02:24;;;;;;;21.02;9.77;;;12.00;99.90;;;;;;5094460;28;20048;-63
2022/06/07 02:04:50;;;;;;;19.27;9.25;;;12.20;99.90;;;;;;5095156;28;20075;-63
2022/06/07 02:07:18;;;;;;;18.45;9.07;;;11.90;99.90;;;;;;5095244;28;20052;-63
2022/06/07 02:09:44;;;;;;;20.70;9.88;;;11.60;99.90;;;;;;5095002;28;20040;-62
2022/06/07 02:12:11;;;;;;;22.42;10.60;;;11.70;99.90;;;;;;5095106;28;20040;-63
2022/06/07 02:14:39;;;;;;;20.67;10.05;;;11.60;99.90;;;;;;5095036;28;20048;-65
2022/06/07 02:17:05;;;;;;;20.05;9.02;;;11.50;99.90;;;;;;5095030;28;20127;-63
2022/06/07 02:19:31;;;;;;;22.75;9.60;;;11.60;99.90;;;;;;5077052;28;20479;-63
2022/06/07 02:21:56;;;;;;;21.67;10.30;;;13.00;99.90;;;;;;5094931;28;20059;-64
2022/06/07 02:24:22;;;;;;;24.00;10.80;;;11.60;99.90;;;;;;5094878;28;20070;-64
2022/06/07 02:26:55;;;;;;;26.80;12.25;;;11.90;99.90;;;;;;5094853;28;20083;-63
2022/06/07 02:29:41;;;;;;;22.95;11.60;;;11.70;99.90;;;;;;5094661;28;20060;-64
2022/06/07 02:32:24;;;;;;;25.52;11.88;;;13.00;99.90;;;;;;5094804;28;20052;-65
2022/06/07 02:34:53;;;;;;;25.67;10.02;;;11.70;99.90;;;;;;5076646;28;20060;-63
2022/06/07 02:37:20;;;;;;;23.70;10.73;;;11.50;99.90;;;;;;5094628;28;20388;-64
2022/06/07 02:39:46;;;;;;;23.92;8.52;;;11.60;99.90;;;;;;5094516;28;20059;-64
2022/06/07 02:42:14;;;;;;;23.50;8.73;;;11.70;99.90;;;;;;5094545;28;20048;-64
2022/06/07 02:44:40;;;;;;;20.05;8.07;;;11.50;99.90;;;;;;5094444;28;20392;-64
2022/06/07 02:47:06;;;;;;;21.83;8.45;;;11.50;99.90;;;;;;5094367;28;20056;-64
2022/06/07 02:49:32;;;;;;;14.52;7.55;;;11.50;99.90;;;;;;5094229;28;20043;-63
2022/06/07 02:51:58;;;;;;;15.48;8.88;;;11.60;99.90;;;;;;5094267;28;20395;-64
2022/06/07 02:54:24;;;;;;;18.73;8.35;;;11.70;99.90;;;;;;5094344;28;20051;-63
2022/06/07 02:56:49;;;;;;;22.98;8.73;;;10.90;99.90;;;;;;5094193;28;20058;-64
2022/06/07 02:59:15;;;;;;;18.52;8.00;;;11.60;99.90;;;;;;5094212;28;20040;-63
2022/06/07 03:01:40;;;;;;;21.88;8.05;;;11.90;99.90;;;;;;5094116;28;20165;-64
2022/06/07 03:04:06;;;;;;;21.40;8.80;;;11.40;99.90;;;;;;5076191;28;20491;-63
2022/06/07 03:06:32;;;;;;;21.10;7.63;;;11.30;99.90;;;;;;5093988;28;20052;-63
2022/06/07 03:08:57;;;;;;;14.68;7.30;;;11.00;99.90;;;;;;5093873;28;20048;-64
2022/06/07 03:11:23;;;;;;;22.05;7.70;;;11.50;99.90;;;;;;5093938;28;20039;-65
2022/06/07 03:13:49;;;;;;;18.48;7.30;;;11.40;99.90;;;;;;5093077;28;20396;-64
2022/06/07 03:16:15;;;;;;;18.27;7.57;;;11.40;99.90;;;;;;5075738;28;20040;-64
2022/06/07 03:18:41;;;;;;;;;;;11.30;99.90;;;;;;5094108;28;20136;-63
2022/06/07 03:21:07;;;;;;;22.23;7.65;;;11.30;99.90;;;;;;5093747;28;19974;-63
2022/06/07 03:23:33;;;;;;;18.08;7.57;;;11.30;99.90;;;;;;5075768;28;20377;-63
2022/06/07 03:26:07;;;;;;;26.65;8.20;;;11.60;99.90;;;;;;5093661;28;20154;-63
2022/06/07 03:28:33;;;;;;;22.30;8.30;;;11.30;99.90;;;;;;5093338;28;20048;-65
2022/06/07 03:31:08;;;;;;;16.40;8.23;;;11.40;99.90;;;;;;5093865;28;20140;-63
2022/06/07 03:33:34;;;;;;;24.40;8.55;;;11.60;99.90;;;;;;5093496;28;20126;-64
2022/06/07 03:36:08;;;;;;;23.33;8.10;;;11.80;99.90;;;;;;5093465;28;20528;-63
2022/06/07 03:38:34;;;;;;;16.00;7.95;;;11.40;99.90;;;;;;5093407;28;20047;-64
2022/06/07 03:41:00;;;;;;;19.15;8.98;;;11.50;99.90;;;;;;5093440;28;20507;-63
2022/06/07 03:43:26;;;;;;;19.75;7.72;;;10.90;99.90;;;;;;5093362;28;20047;-63
2022/06/07 03:45:52;;;;;;;17.77;6.72;;;12.20;99.90;;;;;;5093208;28;20055;-64
2022/06/07 03:48:17;;;;;;;18.10;7.05;;;11.50;99.90;;;;;;5093186;28;20081;-64
2022/06/07 03:50:43;;;;;;;17.27;6.65;;;11.30;99.90;;;;;;5093129;28;20048;-64
2022/06/07 03:53:09;;;;;;;21.98;6.57;;;11.30;99.90;;;;;;5093229;28;20165;-65
2022/06/07 03:55:35;;;;;;;14.32;6.47;;;11.30;99.90;;;;;;5093135;28;20122;-64
2022/06/07 03:58:00;;;;;;;20.15;7.38;;;11.20;99.90;;;;;;5093087;28;20085;-63
2022/06/07 04:00:26;;;;;;;28.35;7.45;;;11.20;99.90;;;;;;5093091;28;20462;-62
2022/06/07 04:02:52;;;;;;;19.98;7.13;;;11.00;99.90;;;;;;5075076;28;20047;-63
2022/06/07 04:05:18;;;;;;;23.15;7.15;;;11.00;99.90;;;;;;5074890;28;20047;-63
2022/06/07 04:10:28;;;;;;;18.92;7.05;;;11.10;99.90;;;;;;5092884;28;20054;-64
2022/06/07 04:12:53;;;;;;;22.50;7.60;;;11.20;99.90;;;;;;5074768;28;20131;-62
2022/06/07 04:15:19;;;;;;;16.95;7.13;;;11.50;99.90;;;;;;5092884;28;20079;-64
2022/06/07 04:17:45;;;;;;;20.48;7.80;;;11.50;99.90;;;;;;5092893;28;20044;-63
2022/06/07 04:20:11;;;;;;;19.48;7.40;;;12.30;99.90;;;;;;5092819;28;20042;-62
2022/06/07 04:22:37;;;;;;;15.48;8.18;;;11.60;99.90;;;;;;5092709;28;20052;-63
2022/06/07 04:25:03;;;;;;;18.85;7.97;;;11.10;99.90;;;;;;5092560;28;20055;-63
2022/06/07 04:27:29;;;;;;;23.75;7.97;;;11.10;99.90;;;;;;5092729;28;20055;-63
2022/06/07 04:29:55;;;;;;;24.67;8.35;;;11.20;99.90;;;;;;5092155;28;20496;-62
2022/06/07 04:32:21;;;;;;;18.27;7.78;;;12.20;99.90;;;;;;5092661;28;20055;-62
2022/06/07 04:34:46;;;;;;;17.58;7.63;;;11.40;99.90;;;;;;5092655;28;20044;-62
2022/06/07 04:37:12;;;;;;;24.20;8.48;;;11.30;99.90;;;;;;5074848;28;20044;-63
2022/06/07 04:39:38;;;;;;;22.98;8.18;;;11.80;99.90;;;;;;5092608;28;20048;-64
2022/06/07 04:42:04;;;;;;;17.95;8.13;;;11.00;99.90;;;;;;5074451;28;20488;-63
2022/06/07 04:44:30;;;;;;;24.95;8.98;;;11.20;99.90;;;;;;5092571;28;20123;-64
2022/06/07 04:46:56;;;;;;;27.35;8.48;;;11.80;99.90;;;;;;5092508;28;20048;-63
2022/06/07 04:49:22;;;;;;;26.10;9.25;;;10.90;99.90;;;;;;5092520;28;20046;-63
2022/06/07 04:51:48;;;;;;;;;;;11.30;99.90;;;;;;5092880;28;20483;-64
2022/06/07 04:54:14;;;;;;;27.90;10.05;;;12.00;99.90;;;;;;5092552;28;19924;-64
2022/06/07 04:56:39;;;;;;;21.63;9.18;;;11.30;99.90;;;;;;5057953;28;20047;-64
2022/06/07 04:59:06;;;;;;;23.00;9.23;;;11.90;99.90;;;;;;5092487;28;20399;-64
2022/06/07 05:01:36;;;;;;;16.45;6.53;;;12.10;99.90;;;;;;5092495;28;20055;-64
2022/06/07 05:04:03;;;;;;;17.95;7.75;;;11.40;99.90;;;;;;5092395;28;20052;-63
2022/06/07 05:06:42;;;;;;;20.55;7.20;;;11.40;99.90;;;;;;5092502;28;20087;-64
2022/06/07 05:09:17;;;;;;;11.52;4.85;;;11.40;99.90;;;;;;5092396;28;20086;-63
2022/06/07 05:11:46;;;;;;;13.63;5.05;;;11.20;99.90;;;;;;5092479;28;20058;-65
2022/06/07 05:14:12;;;;;;;14.25;5.47;;;11.60;99.90;;;;;;5092406;28;20434;-62
2022/06/07 05:16:40;;;;;;;14.43;4.20;;;12.80;99.90;;;;;;5092440;28;20036;-63
2022/06/07 05:19:06;;;;;;;14.93;4.05;;;11.30;99.90;;;;;;5092342;28;20396;-63
2022/06/07 05:21:32;;;;;;;9.57;3.72;;;11.80;99.90;;;;;;5092294;28;20130;-63
2022/06/07 05:23:57;;;;;;;16.17;4.05;;;11.60;99.90;;;;;;5092254;28;20086;-63
2022/06/07 05:26:39;;;;;;;14.38;3.88;;;11.70;99.90;;;;;;5092297;28;20048;-62
2022/06/07 05:29:09;;;;;;;13.27;3.00;;;11.10;99.90;;;;;;5092104;28;20126;-63
2022/06/07 05:31:34;;;;;;;12.30;3.20;;;11.50;99.90;;;;;;5092118;28;20052;-63
2022/06/07 05:34:01;;;;;;;13.00;3.20;;;12.00;99.90;;;;;;5092225;28;20055;-63
2022/06/07 05:36:28;;;;;;;11.77;3.30;;;11.50;99.90;;;;;;5092893;28;20078;-63
2022/06/07 05:38:54;;;;;;;11.50;3.42;;;11.60;99.90;;;;;;5095785;28;20052;-63
2022/06/07 05:41:24;;;;;;;13.05;3.65;;;11.80;99.90;;;;;;5096121;28;20052;-63
2022/06/07 05:43:51;;;;;;;16.30;3.90;;;11.50;99.90;;;;;;5095522;28;20416;-63
2022/06/07 05:46:17;;;;;;;14.63;3.65;;;11.60;99.90;;;;;;5095701;28;20056;-63
2022/06/07 05:48:43;;;;;;;15.85;3.15;;;11.50;99.90;;;;;;5095319;28;20496;-63
2022/06/07 05:51:09;;;;;;;10.85;3.22;;;11.90;99.90;;;;;;5095669;28;20047;-63
2022/06/07 05:53:34;;;;;;;12.77;3.42;;;12.00;99.90;;;;;;5077765;28;20048;-63
2022/06/07 05:56:09;;;;;;;15.38;3.33;;;11.60;99.90;;;;;;5095506;28;20074;-64
2022/06/07 05:58:35;;;;;;;23.33;3.63;;;11.60;99.90;;;;;;5095513;28;20056;-64
2022/06/07 06:01:00;;;;;;;13.45;4.22;;;12.00;99.90;;;;;;5095524;28;20411;-62
2022/06/07 06:03:26;;;;;;;15.25;4.00;;;11.90;99.90;;;;;;5095468;28;20510;-63
2022/06/07 06:05:52;;;;;;;10.77;3.65;;;11.90;99.90;;;;;;5095356;28;20077;-63
2022/06/07 06:11:08;;;;;;;10.68;3.30;;;13.10;99.90;;;;;;5115673;28;20192;-64
2022/06/07 06:13:35;;;;;;;14.98;3.17;;;11.90;99.90;;;;;;5114588;28;20043;-63
2022/06/07 06:16:07;;;;;;;10.55;3.80;;;12.00;99.90;;;;;;5089201;28;20052;-63
2022/06/07 06:18:33;;;;;;;16.73;3.90;;;11.80;99.90;;;;;;5102284;28;20043;-63
2022/06/07 06:20:59;;;;;;;14.98;3.40;;;11.90;99.90;;;;;;5103611;28;20051;-63
2022/06/07 06:23:26;;;;;;;17.48;3.65;;;11.80;99.90;;;;;;5104311;28;20047;-63
2022/06/07 06:25:51;;;;;;;12.02;3.65;;;12.10;99.90;;;;;;5102655;28;20492;-63
2022/06/07 06:28:17;;;;;;;12.85;3.15;;;12.60;99.90;;;;;;5105803;28;20051;-64
2022/06/07 06:30:44;;;;;;;17.73;3.20;;;12.20;99.90;;;;;;5100593;28;20059;-63
2022/06/07 06:33:14;;;;;;;18.92;3.95;;;12.10;99.90;;;;;;5083295;28;20048;-63
2022/06/07 06:35:47;;;;;;;15.40;3.38;;;12.20;99.90;;;;;;5082919;28;20361;-62
2022/06/07 06:38:13;;;;;;;12.90;2.78;;;12.40;99.90;;;;;;5097810;28;20520;-63
2022/06/07 06:40:39;;;;;;;12.60;3.28;;;13.00;99.90;;;;;;5100386;28;20047;-61
2022/06/07 06:43:05;;;;;;;10.45;2.65;;;12.40;99.90;;;;;;5104575;28;20089;-62
2022/06/07 06:45:30;;;;;;;13.20;2.35;;;12.40;99.90;;;;;;5080137;28;20052;-63
2022/06/07 06:47:56;;;;;;;11.02;2.92;;;12.50;99.90;;;;;;5102130;28;20488;-62
2022/06/07 06:50:22;;;;;;;12.73;2.10;;;12.80;99.90;;;;;;5103874;28;20134;-62
2022/06/07 06:52:47;;;;;;;13.27;2.15;;;12.80;99.90;;;;;;5102423;28;20051;-63
2022/06/07 06:55:13;;;;;;;13.20;2.72;;;13.30;99.90;;;;;;5103450;28;20035;-61
2022/06/07 06:57:40;;;;;;;11.73;1.95;;;13.00;99.90;;;;;;5104407;28;20079;-62
2022/06/07 07:00:09;;;;;;;15.60;1.90;;;13.00;99.90;;;;;;5100664;28;20059;-66
2022/06/07 07:02:35;;;;;;;12.90;2.72;;;13.00;99.90;;;;;;5087094;28;20044;-62
2022/06/07 07:05:00;;;;;;;11.38;1.90;;;12.80;99.90;;;;;;5101904;28;20040;-63
2022/06/07 07:07:26;;;;;;;13.20;1.98;;;13.30;99.90;;;;;;5103659;28;20534;-62
2022/06/07 07:09:54;;;;;;;9.13;1.65;;;12.90;99.90;;;;;;5102448;28;20039;-61
2022/06/07 07:12:21;;;;;;;10.77;2.30;;;12.70;99.90;;;;;;5102949;28;20070;-63
2022/06/07 07:14:48;;;;;;;;;;;12.80;99.90;;;;;;5104019;28;20407;-62
2022/06/07 07:17:14;;;;;;;15.70;3.15;;;12.70;99.90;;;;;;5101149;28;19920;-62
2022/06/07 07:19:39;;;;;;;13.55;2.65;;;12.70;99.90;;;;;;5104886;28;20040;-61
2022/06/07 07:22:05;;;;;;;7.70;2.70;;;14.30;99.90;;;;;;5102871;28;20066;-62
2022/06/07 07:24:32;;;;;;;14.52;2.13;;;12.80;99.90;;;;;;5102417;28;20058;-62
2022/06/07 07:26:58;;;;;;;16.27;2.38;;;13.00;99.90;;;;;;5109908;28;20488;-62
2022/06/07 07:29:24;;;;;;;11.35;2.15;;;13.20;99.90;;;;;;5113034;28;20059;-61
2022/06/07 07:31:50;;;;;;;17.15;2.42;;;12.80;99.90;;;;;;5114013;28;20048;-61
2022/06/07 07:34:17;;;;;;;;;;;13.10;99.90;;;;;;5109361;28;20043;-70
2022/06/07 07:36:49;;;;;;;8.18;1.75;;;13.20;99.90;;;;;;5084992;28;19927;-63
2022/06/07 07:39:15;;;;;;;7.47;1.92;;;13.50;99.90;;;;;;5093061;28;20047;-63
2022/06/07 07:41:42;;;;;;;10.88;2.53;;;13.10;99.90;;;;;;5075180;28;20044;-63
2022/06/07 07:44:12;;;;;;;11.57;1.90;;;13.50;99.90;;;;;;5093189;28;20046;-64
2022/06/07 07:46:40;;;;;;;11.15;1.48;;;13.50;99.90;;;;;;5093211;28;20040;-63
2022/06/07 07:49:06;;;;;;;6.20;1.67;;;13.40;99.90;;;;;;5093038;28;20036;-63
2022/06/07 07:51:35;;;;;;;6.72;1.80;;;13.40;99.90;;;;;;5092699;28;20556;-62
2022/06/07 07:54:03;;;;;;;6.50;2.58;;;13.60;99.90;;;;;;5093045;28;20384;-62
2022/06/07 07:56:29;;;;;;;7.88;1.67;;;13.70;99.90;;;;;;5093008;28;20432;-61
2022/06/07 07:58:56;;;;;;;9.10;2.13;;;13.70;99.90;;;;;;5092592;28;20124;-62
2022/06/07 08:01:25;;;;;;;6.90;2.10;;;13.30;99.90;;;;;;5092824;28;20109;-62
2022/06/07 08:03:52;;;;;;;12.80;2.17;;;13.50;99.90;;;;;;5092873;28;20055;-61
2022/06/07 08:06:20;;;;;;;8.35;1.80;;;14.20;99.90;;;;;;5092418;28;20093;-62
2022/06/07 08:08:48;;;;;;;10.07;2.78;;;13.50;99.90;;;;;;5092608;28;20055;-63
2022/06/07 08:11:17;;;;;;;9.32;2.05;;;13.40;99.90;;;;;;5092620;28;20545;-63
2022/06/07 08:13:43;;;;;;;7.57;2.45;;;13.50;99.90;;;;;;5092775;28;20492;-62
2022/06/07 08:16:09;;;;;;;16.02;2.33;;;13.70;99.90;;;;;;5092758;28;20078;-61
2022/06/07 08:18:36;;;;;;;11.02;2.63;;;13.30;99.90;;;;;;5092708;28;20048;-61
2022/06/07 08:21:05;;;;;;;17.90;4.53;;;13.50;99.90;;;;;;5074424;28;20060;-63
2022/06/07 08:23:32;;;;;;;13.35;2.20;;;13.60;99.90;;;;;;5092710;28;20079;-62
2022/06/07 08:26:00;;;;;;;14.48;3.03;;;13.40;99.90;;;;;;5100218;28;20120;-66
2022/06/07 08:28:25;;;;;;;17.90;2.72;;;13.80;99.90;;;;;;5094829;28;20123;-62
2022/06/07 08:30:52;;;;;;;14.73;2.65;;;13.70;99.90;;;;;;5101004;28;20482;-63
2022/06/07 08:38:56;;;;;;;17.75;3.65;;;13.60;99.90;;;;;;5099725;28;20051;-61
2022/06/07 08:41:56;;;;;;;11.07;2.03;;;13.70;99.90;;;;;;5097214;28;21167;-63
2022/06/07 08:44:30;;;;;;;11.45;2.50;;;13.60;99.90;;;;;;5102039;28;20056;-62
2022/06/07 08:47:01;;;;;;;12.30;2.85;;;13.50;99.90;;;;;;5100233;28;20044;-61
2022/06/07 08:49:27;;;;;;;13.15;2.55;;;13.90;99.90;;;;;;5102274;28;20051;-62
2022/06/07 08:51:55;;;;;;;;;;;13.80;99.90;;;;;;5098547;28;20051;-63
2022/06/07 08:54:30;;;;;;;13.85;2.40;;;13.90;99.90;;;;;;5097105;28;19963;-63
2022/06/07 08:57:03;;;;;;;13.65;2.17;;;14.10;99.90;;;;;;5091265;28;20040;-62
2022/06/07 08:59:29;;;;;;;12.23;2.15;;;13.90;99.90;;;;;;5092316;28;20040;-62
2022/06/07 09:02:04;;;;;;;10.63;2.00;;;14.80;99.90;;;;;;5092362;28;20044;-61
2022/06/07 09:04:32;;;;;;;6.25;2.13;;;14.10;99.90;;;;;;5092444;28;20044;-62
2022/06/07 09:07:03;;;;;;;7.20;1.70;;;13.70;99.90;;;;;;5092382;28;20048;-63
2022/06/07 09:12:20;;;;;;;;;;;14.40;99.90;;;;;;5094901;28;20094;-62
2022/06/07 09:15:00;;;;;;;9.65;2.45;;;14.20;99.90;;;;;;5096499;28;20015;-63
2022/06/07 09:17:45;;;;;;;9.27;2.28;;;14.10;99.90;;;;;;5096235;28;20047;-62
2022/06/07 09:20:19;;;;;;;11.07;2.38;;;14.20;99.90;;;;;;5096197;28;20044;-62
2022/06/07 09:22:54;;;;;;;9.73;2.17;;;14.50;99.90;;;;;;5096132;28;20040;-62
2022/06/07 09:25:22;;;;;;;11.45;1.80;;;14.70;99.90;;;;;;5096026;28;20135;-62
2022/06/07 09:27:48;;;;;;;10.55;2.30;;;14.80;99.90;;;;;;5096052;28;20056;-63
2022/06/07 09:30:19;;;;;;;6.18;1.40;;;14.80;99.90;;;;;;5095441;28;20051;-63
2022/06/07 09:32:49;;;;;;;6.20;1.30;;;14.40;99.90;;;;;;5093484;28;20052;-63
2022/06/07 09:35:20;;;;;;;6.50;2.05;;;14.40;99.90;;;;;;5093174;28;20071;-62
2022/06/07 09:37:55;;;;;;;7.50;1.38;;;14.00;99.90;;;;;;5102586;28;20055;-63
2022/06/07 09:40:24;;;;;;;10.63;1.73;;;13.90;99.90;;;;;;5099581;28;20040;-63
2022/06/07 09:42:53;;;;;;;11.88;1.50;;;14.00;99.90;;;;;;5103082;28;20055;-63
2022/06/07 09:45:29;;;;;;;7.50;1.67;;;13.80;99.90;;;;;;5098065;28;20126;-63
2022/06/07 09:47:55;;;;;;;5.28;1.92;;;13.50;99.90;;;;;;5099392;28;20454;-67
2022/06/07 09:50:30;;;;;;;10.75;2.67;;;13.30;99.90;;;;;;5098628;28;20106;-62
2022/06/07 09:52:58;;;;;;;7.75;1.65;;;13.40;99.90;;;;;;5081721;28;20083;-63
2022/06/07 09:55:41;;;;;;;8.25;2.20;;;13.60;99.90;;;;;;5102158;28;20122;-64
2022/06/07 09:58:41;;;;;;;13.77;2.33;;;13.90;99.90;;;;;;5083789;28;20118;-63
2022/06/07 10:01:18;;;;;;;7.68;2.80;;;14.10;99.90;;;;;;5102484;28;20048;-63
2022/06/07 10:03:46;;;;;;;;;;;13.80;99.90;;;;;;5085832;28;20048;-63
2022/06/07 10:06:56;;;;;;;10.45;2.25;;;14.10;99.90;;;;;;5099489;28;19931;-64
2022/06/07 10:09:30;;;;;;;8.40;3.05;;;14.10;99.90;;;;;;5003580;28;20045;-63
2022/06/07 10:12:56;;;;;;;11.35;2.30;;;14.30;99.90;;;;;;5003330;28;20510;-63
2022/06/07 10:15:30;;;;;;;18.92;2.90;;;14.00;99.90;;;;;;5022967;28;20091;-65
2022/06/07 10:18:27;;;;;;;9.90;2.92;;;13.60;99.90;;;;;;5099047;28;20055;-62
2022/06/07 10:21:14;;;;;;;19.77;6.38;;;14.40;99.90;;;;;;5101699;28;20419;-63
2022/06/07 10:23:59;;;;;;;11.77;5.45;;;14.50;99.90;;;;;;5083709;28;20048;-63
2022/06/07 10:26:48;;;;;;;8.45;2.92;;;14.10;99.90;;;;;;5101100;28;20488;-63
2022/06/07 10:29:32;;;;;;;43.50;27.52;;;14.60;99.90;;;;;;5086150;28;20052;-64
2022/06/07 10:32:20;;;;;;;9.65;2.22;;;14.80;99.90;;;;;;5099032;28;20044;-63
2022/06/07 10:34:48;;;;;;;9.65;2.95;;;14.30;99.90;;;;;;5099587;28;20171;-63
2022/06/07 10:37:21;;;;;;;11.63;3.05;;;14.50;99.90;;;;;;5093717;28;20447;-63
2022/06/07 10:40:13;;;;;;;16.48;2.20;;;14.10;99.90;;;;;;5093576;28;20039;-62
2022/06/07 10:42:45;;;;;;;11.70;2.30;;;13.90;99.90;;;;;;5094056;28;20059;-63
2022/06/07 10:45:22;;;;;;;23.55;13.40;;;14.00;99.90;;;;;;5094651;28;20051;-63
2022/06/07 10:48:04;;;;;;;10.43;2.38;;;14.00;99.90;;;;;;5094540;28;20048;-62
2022/06/07 10:50:42;;;;;;;8.82;2.05;;;13.90;99.90;;;;;;5075695;28;20523;-63
2022/06/07 10:53:17;;;;;;;12.82;2.50;;;14.00;99.90;;;;;;5099419;28;20051;-63
2022/06/07 10:55:49;;;;;;;6.93;2.20;;;14.40;99.90;;;;;;5094362;28;20047;-63
2022/06/07 10:58:38;;;;;;;14.98;6.70;;;14.80;99.90;;;;;;5094643;28;20090;-64
2022/06/07 11:01:29;;;;;;;10.35;3.67;;;15.10;99.90;;;;;;5094233;28;20435;-63
2022/06/07 11:10:30;;;;;;;9.63;2.22;;;14.70;99.90;;;;;;5075862;28;20408;-63
2022/06/07 11:13:13;;;;;;;18.45;6.93;;;14.40;99.90;;;;;;5093975;28;20489;-63
2022/06/07 11:16:03;;;;;;;10.95;3.00;;;14.60;99.90;;;;;;5093643;28;20056;-65
2022/06/07 11:18:30;;;;;;;11.73;2.53;;;14.40;99.90;;;;;;5093525;28;20119;-65
2022/06/07 11:21:01;;;;;;;11.65;2.38;;;14.00;99.90;;;;;;5093752;28;20065;-63
2022/06/07 11:23:34;;;;;;;7.53;2.05;;;14.20;99.90;;;;;;5093843;28;20048;-63
2022/06/07 11:26:01;;;;;;;14.93;3.22;;;14.30;99.90;;;;;;5093870;28;20059;-63
2022/06/07 11:28:32;;;;;;;12.07;3.05;;;14.20;99.90;;;;;;5093787;28;20126;-63
2022/06/07 11:31:21;;;;;;;13.32;2.75;;;14.20;99.90;;;;;;5093616;28;20052;-63
2022/06/07 11:33:53;;;;;;;14.00;2.28;;;14.20;99.90;;;;;;5082036;28;20451;-63
2022/06/07 11:36:24;;;;;;;11.38;2.35;;;14.10;99.90;;;;;;5093502;28;20502;-65
2022/06/07 11:38:58;;;;;;;10.60;3.17;;;14.40;99.90;;;;;;5093546;28;20051;-63
2022/06/07 11:41:38;;;;;;;11.55;2.72;;;14.20;99.90;;;;;;5093494;28;20054;-64
2022/06/07 11:44:30;;;;;;;12.80;2.60;;;14.80;99.90;;;;;;5093551;28;20083;-63
2022/06/07 11:47:06;;;;;;;9.55;3.30;;;14.40;99.90;;;;;;5093401;28;20098;-63
2022/06/07 11:49:41;;;;;;;16.27;2.50;;;15.20;99.90;;;;;;5093351;28;20047;-63
2022/06/07 11:52:22;;;;;;;11.75;2.10;;;14.80;99.90;;;;;;5093386;28;20529;-64
2022/06/07 11:55:04;;;;;;;8.88;1.80;;;15.10;99.90;;;;;;5093037;28;20545;-63
2022/06/07 11:57:30;;;;;;;7.40;2.47;;;15.70;99.90;;;;;;5093212;28;20044;-64
2022/06/07 12:00:16;;;;;;;8.10;2.30;;;15.30;99.90;;;;;;5093190;28;20044;-64
2022/06/07 12:03:11;;;;;;;8.35;2.00;;;15.00;99.90;;;;;;5093199;28;20113;-63
2022/06/07 12:05:43;;;;;;;7.00;2.20;;;14.80;99.90;;;;;;5093056;28;20051;-63
2022/06/07 12:08:29;;;;;;;8.10;2.17;;;14.90;99.90;;;;;;5093097;28;20119;-64
2022/06/07 12:10:59;;;;;;;6.18;1.67;;;15.30;99.90;;;;;;5092781;28;20047;-63
2022/06/07 12:13:51;;;;;;;7.38;1.60;;;15.40;99.90;;;;;;5092825;28;20048;-64
2022/06/07 12:16:19;;;;;;;4.53;1.48;;;15.20;99.90;;;;;;5092794;28;20126;-63
2022/06/07 12:18:54;;;;;;;6.95;2.08;;;15.70;99.90;;;;;;5092732;28;20090;-63
2022/06/07 12:21:21;;;;;;;4.90;1.40;;;15.50;99.90;;;;;;5093334;28;20052;-63
2022/06/07 12:23:50;;;;;;;7.80;1.50;;;15.40;99.90;;;;;;5077297;28;20032;-63
2022/06/07 12:26:31;;;;;;;7.82;1.80;;;15.50;99.90;;;;;;5091747;28;20561;-63
2022/06/07 12:29:21;;;;;;;7.22;1.42;;;15.50;99.90;;;;;;5091817;28;20048;-64
2022/06/07 12:32:00;;;;;;;7.75;1.52;;;15.40;99.90;;;;;;5077336;28;20070;-63
2022/06/07 12:34:36;;;;;;;7.50;1.75;;;15.30;99.90;;;;;;5090439;28;20127;-63
2022/06/07 12:37:23;;;;;;;11.50;2.30;;;15.10;99.90;;;;;;5089657;28;20055;-63
2022/06/07 12:39:56;;;;;;;6.20;1.67;;;15.30;99.90;;;;;;5091132;28;20508;-64
2022/06/07 12:42:24;;;;;;;6.75;1.35;;;15.00;99.90;;;;;;5092188;28;20132;-64
2022/06/07 12:44:56;;;;;;;4.40;1.98;;;14.70;99.90;;;;;;5089739;28;20506;-65
2022/06/07 12:47:31;;;;;;;6.50;1.83;;;15.00;99.90;;;;;;5078261;28;20134;-63
2022/06/07 12:49:58;;;;;;;7.63;1.85;;;15.00;99.90;;;;;;5095520;28;20040;-64
2022/06/07 12:52:27;;;;;;;4.47;1.50;;;14.90;99.90;;;;;;5096490;28;20065;-64
2022/06/07 12:55:14;;;;;;;7.80;1.95;;;14.80;99.90;;;;;;5096369;28;20044;-64
2022/06/07 12:57:48;;;;;;;7.30;1.77;;;14.70;99.90;;;;;;5077487;28;20547;-63
2022/06/07 13:00:18;;;;;;;6.47;1.90;;;14.70;99.90;;;;;;5104057;28;20492;-65
2022/06/07 13:02:58;;;;;;;8.25;2.05;;;15.10;99.90;;;;;;5116510;28;20043;-63
2022/06/07 13:05:31;;;;;;;8.95;1.73;;;14.80;99.90;;;;;;5116779;28;20140;-65
2022/06/07 13:08:00;;;;;;;7.82;1.50;;;14.90;99.90;;;;;;5116971;28;20128;-65
2022/06/07 13:10:32;;;;;;;13.73;2.33;;;14.90;99.90;;;;;;5081789;28;20134;-64
2022/06/07 13:13:00;;;;;;;5.95;1.65;;;15.00;99.90;;;;;;5116298;28;20487;-63
2022/06/07 13:15:51;;;;;;;6.93;2.15;;;15.10;99.90;;;;;;5116238;28;20043;-63
2022/06/07 13:18:17;;;;;;;7.85;1.60;;;14.80;99.90;;;;;;5114865;28;20142;-63
2022/06/07 13:20:44;;;;;;;;;;;14.80;99.90;;;;;;5116398;28;20126;-64
2022/06/07 13:23:11;;;;;;;;;;;15.20;99.90;;;;;;5116340;28;19923;-65
2022/06/07 13:25:37;;;;;;;5.57;1.40;;;14.80;99.90;;;;;;5116021;28;19919;-66